createdAt,value
2017-10-09T00:01:53.037Z,9.90
2017-10-09T00:04:21.270Z,10.00
2017-10-09T00:06:48.741Z,9.90
2017-10-09T00:09:16.198Z,9.90
2017-10-09T00:11:43.669Z,9.90
2017-10-09T00:14:11.153Z,9.90
2017-10-09T00:16:38.600Z,9.90
2017-10-09T00:19:06.053Z,9.80
2017-10-09T00:21:33.549Z,9.80
2017-10-09T00:24:01.002Z,9.80
2017-10-09T00:26:28.454Z,9.80
2017-10-09T00:28:56.014Z,9.70
2017-10-09T00:31:24.234Z,9.70
2017-10-09T00:33:51.700Z,9.70
2017-10-09T00:36:19.912Z,9.60
2017-10-09T00:38:47.385Z,9.60
2017-10-09T00:41:14.845Z,9.60
2017-10-09T00:43:42.313Z,9.60
2017-10-09T00:46:09.791Z,9.60
2017-10-09T00:48:37.234Z,9.60
2017-10-09T00:51:04.718Z,9.60
2017-10-09T00:53:32.197Z,9.50
2017-10-09T00:55:59.641Z,9.50
2017-10-09T00:58:27.149Z,9.50
2017-10-09T01:00:54.597Z,9.50
2017-10-09T01:03:22.853Z,9.50
2017-10-09T01:05:50.308Z,9.50
2017-10-09T01:08:17.821Z,9.50
2017-10-09T01:10:45.291Z,9.50
2017-10-09T01:13:12.761Z,9.40
2017-10-09T01:15:40.211Z,9.40
2017-10-09T01:18:07.681Z,9.50
2017-10-09T01:20:35.128Z,9.40
2017-10-09T01:23:02.618Z,9.40
2017-10-09T01:25:30.065Z,9.40
2017-10-09T01:27:57.514Z,9.50
2017-10-09T01:30:24.986Z,9.50
2017-10-09T01:32:52.436Z,9.60
2017-10-09T01:35:19.913Z,9.60
2017-10-09T01:37:47.373Z,9.70
2017-10-09T01:40:14.857Z,9.70
2017-10-09T01:42:42.329Z,9.80
2017-10-09T01:45:09.773Z,9.80
2017-10-09T01:47:37.350Z,9.90
2017-10-09T01:50:04.798Z,9.90
2017-10-09T01:52:32.249Z,10.00
2017-10-09T01:54:59.729Z,10.00
2017-10-09T01:57:27.185Z,10.10
2017-10-09T01:59:54.669Z,10.10
2017-10-09T02:02:22.122Z,10.20
2017-10-09T02:04:49.573Z,10.20
2017-10-09T02:07:17.044Z,10.20
2017-10-09T02:09:44.534Z,10.30
2017-10-09T02:12:11.993Z,10.30
2017-10-09T02:14:39.441Z,10.30
2017-10-09T02:17:08.610Z,10.40
2017-10-09T02:19:36.153Z,10.40
2017-10-09T02:22:03.613Z,10.40
2017-10-09T02:24:31.081Z,10.50
2017-10-09T02:26:58.561Z,10.50
2017-10-09T02:29:26.012Z,10.50
2017-10-09T02:31:53.662Z,10.50
2017-10-09T02:34:21.110Z,10.50
2017-10-09T02:36:48.573Z,10.60
2017-10-09T02:39:16.049Z,10.60
2017-10-09T02:41:43.521Z,10.60
2017-10-09T02:44:10.977Z,10.60
2017-10-09T02:46:39.257Z,10.70
2017-10-09T02:49:06.726Z,10.60
2017-10-09T02:51:34.177Z,10.70
2017-10-09T02:54:01.669Z,10.70
2017-10-09T02:56:29.124Z,10.80
2017-10-09T02:58:56.582Z,10.80
2017-10-09T03:01:24.056Z,10.80
2017-10-09T03:03:51.507Z,10.80
2017-10-09T03:06:18.989Z,10.90
2017-10-09T03:08:46.445Z,10.90
2017-10-09T03:11:13.900Z,10.90
2017-10-09T03:13:41.374Z,10.90
2017-10-09T03:16:08.985Z,10.90
2017-10-09T03:18:36.466Z,10.90
2017-10-09T03:21:03.929Z,10.90
2017-10-09T03:23:32.306Z,11.00
2017-10-09T03:25:59.747Z,11.00
2017-10-09T03:31:30.116Z,11.00
2017-10-09T03:33:57.569Z,11.00
2017-10-09T03:36:25.062Z,11.10
2017-10-09T03:38:52.541Z,11.00
2017-10-09T03:41:20.766Z,11.10
2017-10-09T03:43:48.295Z,11.10
2017-10-09T03:46:16.521Z,11.10
2017-10-09T03:48:43.993Z,11.10
2017-10-09T03:51:11.466Z,11.10
2017-10-09T03:53:39.836Z,11.10
2017-10-09T03:56:07.317Z,11.10
2017-10-09T03:58:34.765Z,11.10
2017-10-09T04:01:03.018Z,11.10
2017-10-09T04:03:30.489Z,11.10
2017-10-09T04:05:57.966Z,11.10
2017-10-09T04:08:25.517Z,11.20
2017-10-09T04:10:52.975Z,11.20
2017-10-09T04:13:20.450Z,11.20
2017-10-09T04:15:48.668Z,11.20
2017-10-09T04:18:16.141Z,11.20
2017-10-09T04:20:44.353Z,11.20
2017-10-09T04:23:11.829Z,11.20
2017-10-09T04:25:40.989Z,11.30
2017-10-09T04:28:08.468Z,11.30
2017-10-09T04:30:36.729Z,11.30
2017-10-09T04:33:04.201Z,11.30
2017-10-09T04:35:32.449Z,11.30
2017-10-09T04:37:59.918Z,11.30
2017-10-09T04:40:27.392Z,11.30
2017-10-09T04:42:55.618Z,11.30
2017-10-09T04:45:23.081Z,11.30
2017-10-09T04:47:50.573Z,11.30
2017-10-09T04:50:18.025Z,11.30
2017-10-09T04:52:45.482Z,11.30
2017-10-09T04:55:12.952Z,11.30
2017-10-09T04:57:41.009Z,11.30
2017-10-09T05:00:08.528Z,11.30
2017-10-09T05:02:35.982Z,11.30
2017-10-09T05:05:03.442Z,11.30
2017-10-09T05:07:31.686Z,11.40
2017-10-09T05:09:59.917Z,11.40
2017-10-09T05:12:27.372Z,11.40
2017-10-09T05:14:54.849Z,11.40
2017-10-09T05:17:22.306Z,11.40
2017-10-09T05:19:49.781Z,11.40
2017-10-09T05:22:17.233Z,11.40
2017-10-09T05:24:44.705Z,11.40
2017-10-09T05:27:12.945Z,11.40
2017-10-09T05:29:40.453Z,11.40
2017-10-09T05:32:08.677Z,11.40
2017-10-09T05:34:36.160Z,11.40
2017-10-09T05:37:03.617Z,11.40
2017-10-09T05:39:31.152Z,11.40
2017-10-09T05:41:58.624Z,11.50
2017-10-09T05:44:26.106Z,11.50
2017-10-09T05:46:53.598Z,11.50
2017-10-09T05:49:21.070Z,11.50
2017-10-09T05:51:48.533Z,11.50
2017-10-09T05:54:16.009Z,11.50
2017-10-09T05:56:44.253Z,11.50
2017-10-09T05:59:13.249Z,11.50
2017-10-09T06:01:40.705Z,11.50
2017-10-09T06:04:08.159Z,11.50
2017-10-09T06:06:35.645Z,11.50
2017-10-09T06:09:03.101Z,11.50
2017-10-09T06:11:30.562Z,11.50
2017-10-09T06:13:58.053Z,11.50
2017-10-09T06:16:25.510Z,11.50
2017-10-09T06:18:52.973Z,11.50
2017-10-09T06:21:20.466Z,11.60
2017-10-09T06:23:47.913Z,11.60
2017-10-09T06:26:15.388Z,11.70
2017-10-09T06:28:43.744Z,11.70
2017-10-09T06:31:11.226Z,11.70
2017-10-09T06:33:38.704Z,11.70
2017-10-09T06:36:06.153Z,11.70
2017-10-09T06:38:33.620Z,11.60
2017-10-09T06:41:01.104Z,11.60
2017-10-09T06:43:28.561Z,11.50
2017-10-09T06:45:56.017Z,11.50
2017-10-09T06:48:23.489Z,11.60
2017-10-09T06:50:51.745Z,11.60
2017-10-09T06:53:19.197Z,11.60
2017-10-09T06:55:46.650Z,11.70
2017-10-09T06:58:14.142Z,11.70
2017-10-09T07:00:41.601Z,11.70
2017-10-09T07:03:09.829Z,11.80
2017-10-09T07:05:37.330Z,11.80
2017-10-09T07:08:04.790Z,11.90
2017-10-09T07:10:32.249Z,11.90
2017-10-09T07:12:59.725Z,12.00
2017-10-09T07:15:27.185Z,12.10
2017-10-09T07:17:54.675Z,12.10
2017-10-09T07:20:22.193Z,12.20
2017-10-09T07:22:50.436Z,12.30
2017-10-09T07:25:17.901Z,12.20
2017-10-09T07:27:45.368Z,12.30
2017-10-09T07:30:12.844Z,12.30
2017-10-09T07:32:41.077Z,12.40
2017-10-09T07:35:08.549Z,12.40
2017-10-09T07:37:36.007Z,12.40
2017-10-09T07:40:03.468Z,12.50
2017-10-09T07:42:30.948Z,12.50
2017-10-09T07:44:59.201Z,12.60
2017-10-09T07:47:26.653Z,12.60
2017-10-09T07:49:54.134Z,12.60
2017-10-09T07:52:22.377Z,12.70
2017-10-09T07:54:49.865Z,12.60
2017-10-09T07:57:18.233Z,12.70
2017-10-09T07:59:45.685Z,12.70
2017-10-09T08:02:13.169Z,12.80
2017-10-09T08:04:40.617Z,12.90
2017-10-09T08:07:08.094Z,12.90
2017-10-09T08:09:35.545Z,12.90
2017-10-09T08:12:03.042Z,13.00
2017-10-09T08:14:30.500Z,13.00
2017-10-09T08:16:57.953Z,13.10
2017-10-09T08:19:25.517Z,13.10
2017-10-09T08:21:52.973Z,13.20
2017-10-09T08:24:20.434Z,13.30
2017-10-09T08:26:47.949Z,13.30
2017-10-09T08:29:15.396Z,13.40
2017-10-09T08:31:42.861Z,13.50
2017-10-09T08:34:10.358Z,13.60
2017-10-09T08:36:37.812Z,13.60
2017-10-09T08:39:05.260Z,13.70
2017-10-09T08:41:32.748Z,13.80
2017-10-09T08:44:00.212Z,13.80
2017-10-09T08:46:27.673Z,13.90
2017-10-09T08:48:56.026Z,13.90
2017-10-09T08:51:23.484Z,13.90
2017-10-09T08:53:50.987Z,13.80
2017-10-09T08:56:18.449Z,13.80
2017-10-09T08:58:45.909Z,13.90
2017-10-09T09:01:13.396Z,13.90
2017-10-09T09:03:40.854Z,13.90
2017-10-09T09:06:08.321Z,13.90
2017-10-09T09:08:35.797Z,13.90
2017-10-09T09:11:03.285Z,13.90
2017-10-09T09:13:30.768Z,13.90
2017-10-09T09:15:58.277Z,13.90
2017-10-09T09:18:25.740Z,14.00
2017-10-09T09:20:53.196Z,14.00
2017-10-09T09:23:20.672Z,14.00
2017-10-09T09:25:48.153Z,13.90
2017-10-09T09:28:16.305Z,14.00
2017-10-09T09:30:43.785Z,14.00
2017-10-09T09:33:11.244Z,14.10
2017-10-09T09:35:38.736Z,14.10
2017-10-09T09:38:06.197Z,14.20
2017-10-09T09:40:33.653Z,14.30
2017-10-09T09:43:01.146Z,14.30
2017-10-09T09:45:28.621Z,14.40
2017-10-09T09:47:56.079Z,14.40
2017-10-09T09:50:23.581Z,14.50
2017-10-09T09:52:51.045Z,14.60
2017-10-09T09:55:18.501Z,14.60
2017-10-09T09:57:46.907Z,14.70
2017-10-09T10:00:14.394Z,14.70
2017-10-09T10:02:41.849Z,14.80
2017-10-09T10:05:09.317Z,14.90
2017-10-09T10:07:36.793Z,14.90
2017-10-09T10:10:04.254Z,15.00
2017-10-09T10:12:32.510Z,15.20
2017-10-09T10:14:59.974Z,15.20
2017-10-09T10:17:27.470Z,15.20
2017-10-09T10:19:54.924Z,15.30
2017-10-09T10:22:22.381Z,15.40
2017-10-09T10:24:49.866Z,15.40
2017-10-09T10:27:17.518Z,15.50
2017-10-09T10:29:44.984Z,15.60
2017-10-09T10:32:12.481Z,15.60
2017-10-09T10:34:39.947Z,15.60
2017-10-09T10:37:07.404Z,15.60
2017-10-09T10:39:34.902Z,15.50
2017-10-09T10:42:02.390Z,15.40
2017-10-09T10:44:29.844Z,15.30
2017-10-09T10:46:57.333Z,15.30
2017-10-09T10:49:24.793Z,15.30
2017-10-09T10:51:52.256Z,15.40
2017-10-09T10:54:19.733Z,15.40
2017-10-09T10:56:48.685Z,15.70
2017-10-09T10:59:16.160Z,15.70
2017-10-09T11:01:43.629Z,15.90
2017-10-09T11:04:11.880Z,16.00
2017-10-09T11:06:39.349Z,15.90
2017-10-09T11:09:06.849Z,16.00
2017-10-09T11:11:34.350Z,16.00
2017-10-09T11:14:01.805Z,16.00
2017-10-09T11:16:29.291Z,16.00
2017-10-09T11:18:56.746Z,16.00
2017-10-09T11:21:24.247Z,15.90
2017-10-09T11:23:51.700Z,15.90
2017-10-09T11:26:19.153Z,15.90
2017-10-09T11:28:46.633Z,15.90
2017-10-09T11:31:14.098Z,15.90
2017-10-09T11:33:41.729Z,16.00
2017-10-09T11:36:09.185Z,16.10
2017-10-09T11:38:36.745Z,16.10
2017-10-09T11:41:04.229Z,16.20
2017-10-09T11:43:31.696Z,16.20
2017-10-09T11:45:59.204Z,16.10
2017-10-09T11:48:26.673Z,16.10
2017-10-09T11:50:54.139Z,16.20
2017-10-09T11:53:21.637Z,16.20
2017-10-09T11:55:49.086Z,16.10
2017-10-09T11:58:16.577Z,16.10
2017-10-09T12:00:44.053Z,16.00
2017-10-09T12:03:12.282Z,15.90
2017-10-09T12:05:39.757Z,15.90
2017-10-09T12:08:07.209Z,15.80
2017-10-09T12:10:34.692Z,15.80
2017-10-09T12:13:02.145Z,15.70
2017-10-09T12:15:29.600Z,15.80
2017-10-09T12:17:57.076Z,15.90
2017-10-09T12:20:25.309Z,16.00
2017-10-09T12:22:52.794Z,16.00
2017-10-09T12:25:20.260Z,16.10
2017-10-09T12:27:47.709Z,16.10
2017-10-09T12:30:15.238Z,16.20
2017-10-09T12:32:42.689Z,16.30
2017-10-09T12:35:10.171Z,16.50
2017-10-09T12:37:37.645Z,16.60
2017-10-09T12:40:05.100Z,16.70
2017-10-09T12:42:32.583Z,16.70
2017-10-09T12:45:00.059Z,16.70
2017-10-09T12:47:27.509Z,16.70
2017-10-09T12:49:55.005Z,16.60
2017-10-09T12:52:22.456Z,16.60
2017-10-09T12:54:49.910Z,16.60
2017-10-09T12:57:17.549Z,16.60
2017-10-09T12:59:45.769Z,16.50
2017-10-09T13:02:13.249Z,16.50
2017-10-09T13:04:40.729Z,16.50
2017-10-09T13:07:08.974Z,16.40
2017-10-09T13:09:36.425Z,16.40
2017-10-09T13:12:03.907Z,16.50
2017-10-09T13:14:31.381Z,16.40
2017-10-09T13:16:58.832Z,16.40
2017-10-09T13:19:27.077Z,16.50
2017-10-09T13:21:54.553Z,16.50
2017-10-09T13:24:22.021Z,16.50
2017-10-09T13:26:50.990Z,16.50
2017-10-09T13:29:18.494Z,16.50
2017-10-09T13:31:45.949Z,16.50
2017-10-09T13:34:13.435Z,16.50
2017-10-09T13:36:40.946Z,16.50
2017-10-09T13:39:08.421Z,16.40
2017-10-09T13:41:35.873Z,16.30
2017-10-09T13:44:03.373Z,16.30
2017-10-09T13:46:30.868Z,16.20
2017-10-09T13:48:58.320Z,16.20
2017-10-09T13:51:25.784Z,16.10
2017-10-09T13:53:53.283Z,16.10
2017-10-09T13:56:20.765Z,16.00
2017-10-09T13:58:48.223Z,16.00
2017-10-09T14:01:15.721Z,16.00
2017-10-09T14:03:43.219Z,15.90
2017-10-09T14:06:10.693Z,15.80
2017-10-09T14:08:38.165Z,15.80
2017-10-09T14:11:05.649Z,15.80
2017-10-09T14:13:33.129Z,15.70
2017-10-09T14:16:01.357Z,15.60
2017-10-09T14:18:28.857Z,15.60
2017-10-09T14:20:57.081Z,15.40
2017-10-09T14:23:24.545Z,15.40
2017-10-09T14:25:52.192Z,15.30
2017-10-09T14:28:19.648Z,15.30
2017-10-09T14:30:47.120Z,15.20
2017-10-09T14:40:37.791Z,15.00
2017-10-09T14:43:05.280Z,15.00
2017-10-09T14:45:32.746Z,15.00
2017-10-09T14:48:00.966Z,14.90
2017-10-09T14:50:28.514Z,14.90
2017-10-09T14:52:55.962Z,14.90
2017-10-09T14:55:23.419Z,14.90
2017-10-09T14:57:52.541Z,14.90
2017-10-09T15:00:20.002Z,14.90
2017-10-09T15:02:47.469Z,14.90
2017-10-09T15:05:14.945Z,14.80
2017-10-09T15:07:42.434Z,14.90
2017-10-09T15:10:10.657Z,14.90
2017-10-09T15:12:38.117Z,14.90
2017-10-09T15:15:05.600Z,14.90
2017-10-09T15:17:33.058Z,14.90
2017-10-09T15:20:00.541Z,14.90
2017-10-09T15:22:28.005Z,14.90
2017-10-09T15:24:55.494Z,14.90
2017-10-09T15:27:22.973Z,14.90
2017-10-09T15:29:50.452Z,14.90
2017-10-09T15:32:17.944Z,14.90
2017-10-09T15:34:45.400Z,14.90
2017-10-09T15:37:12.857Z,14.80
2017-10-09T15:39:41.137Z,14.70
2017-10-09T15:42:08.987Z,14.70
2017-10-09T15:44:37.203Z,14.60
2017-10-09T15:47:04.706Z,14.60
2017-10-09T15:49:32.175Z,14.60
2017-10-09T15:52:00.398Z,14.60
2017-10-09T15:54:27.935Z,14.50
2017-10-09T15:56:55.334Z,14.50
2017-10-09T15:59:22.810Z,14.50
2017-10-09T16:01:50.301Z,14.50
2017-10-09T16:04:17.758Z,14.50
2017-10-09T16:06:45.991Z,14.50
2017-10-09T16:09:13.477Z,14.50
2017-10-09T16:11:41.705Z,14.50
2017-10-09T16:14:09.173Z,14.50
2017-10-09T16:16:36.662Z,14.50
2017-10-09T16:19:04.131Z,14.50
2017-10-09T16:21:32.353Z,14.40
2017-10-09T16:23:59.830Z,14.50
2017-10-09T16:26:27.322Z,14.40
2017-10-09T16:28:55.541Z,14.40
2017-10-09T16:31:23.161Z,14.40
2017-10-09T16:33:50.662Z,14.40
2017-10-09T16:36:18.198Z,14.30
2017-10-09T16:38:46.419Z,14.30
2017-10-09T16:41:13.950Z,14.20
2017-10-09T16:43:41.443Z,14.20
2017-10-09T16:46:08.913Z,14.20
2017-10-09T16:48:36.365Z,14.20
2017-10-09T16:51:03.849Z,14.10
2017-10-09T16:53:31.358Z,14.10
2017-10-09T16:55:58.830Z,14.10
2017-10-09T16:58:26.286Z,14.10
2017-10-09T17:00:53.782Z,14.10
2017-10-09T17:03:22.001Z,14.00
2017-10-09T17:05:49.455Z,14.00
2017-10-09T17:08:16.933Z,14.00
2017-10-09T17:10:44.390Z,14.00
2017-10-09T17:13:11.921Z,14.00
2017-10-09T17:15:39.533Z,14.00
2017-10-09T17:18:07.796Z,14.10
2017-10-09T17:20:35.282Z,14.10
2017-10-09T17:23:03.507Z,14.10
2017-10-09T17:25:30.988Z,14.10
2017-10-09T17:27:58.482Z,14.10
2017-10-09T17:30:27.040Z,14.10
2017-10-09T17:32:54.690Z,14.00
2017-10-09T17:35:22.185Z,14.10
2017-10-09T17:37:49.683Z,14.10
2017-10-09T17:40:17.204Z,14.10
2017-10-09T17:42:45.501Z,14.20
2017-10-09T17:45:12.977Z,14.20
2017-10-09T17:47:40.457Z,14.20
2017-10-09T17:50:07.933Z,14.30
2017-10-09T17:52:35.417Z,14.30
2017-10-09T17:55:03.645Z,14.30
2017-10-09T17:57:31.097Z,14.30
2017-10-09T17:59:58.574Z,14.30
2017-10-09T18:02:26.033Z,14.30
2017-10-09T18:04:53.489Z,14.30
2017-10-09T18:07:20.988Z,14.30
2017-10-09T18:09:49.224Z,14.30
2017-10-09T18:12:16.684Z,14.30
2017-10-09T18:14:44.160Z,14.30
2017-10-09T18:17:11.633Z,14.30
2017-10-09T18:19:39.864Z,14.40
2017-10-09T18:22:07.342Z,14.30
2017-10-09T18:24:34.825Z,14.40
2017-10-09T18:27:03.065Z,14.40
2017-10-09T18:29:30.540Z,14.40
2017-10-09T18:31:57.997Z,14.40
2017-10-09T18:34:25.465Z,14.40
2017-10-09T18:36:52.950Z,14.40
2017-10-09T18:39:20.513Z,14.40
2017-10-09T18:41:48.018Z,14.40
2017-10-09T18:44:15.496Z,14.40
2017-10-09T18:46:42.961Z,14.50
2017-10-09T18:49:10.479Z,14.50
2017-10-09T18:51:37.970Z,14.50
2017-10-09T18:54:05.485Z,14.50
2017-10-09T18:56:33.233Z,14.50
2017-10-09T18:59:00.757Z,14.50
2017-10-09T19:01:28.227Z,14.50
2017-10-09T19:03:56.006Z,14.50
2017-10-09T19:06:23.866Z,14.50
2017-10-09T19:08:51.637Z,14.50
2017-10-09T19:11:19.197Z,14.50
2017-10-09T19:13:47.185Z,14.50
2017-10-09T19:16:14.964Z,14.50
2017-10-09T19:18:42.558Z,14.50
2017-10-09T19:21:10.370Z,14.50
2017-10-09T19:23:37.864Z,14.50
2017-10-09T19:26:05.717Z,14.50
2017-10-09T19:28:33.435Z,14.50
2017-10-09T19:31:01.876Z,14.50
2017-10-09T19:33:29.383Z,14.40
2017-10-09T19:35:57.398Z,14.40
2017-10-09T19:38:25.193Z,14.40
2017-10-09T19:40:52.923Z,14.40
2017-10-09T19:43:20.573Z,14.40
2017-10-09T19:45:48.049Z,14.40
2017-10-09T19:48:15.804Z,14.40
2017-10-09T19:50:43.798Z,14.30
2017-10-09T19:53:11.671Z,14.40
2017-10-09T19:55:39.162Z,14.40
2017-10-09T19:58:07.455Z,14.30
2017-10-09T20:00:35.226Z,14.30
2017-10-09T20:03:02.717Z,14.30
2017-10-09T20:05:30.178Z,14.30
2017-10-09T20:07:57.628Z,14.30
2017-10-09T20:10:25.108Z,14.40
2017-10-09T20:12:52.570Z,14.40
2017-10-09T20:15:20.111Z,14.40
2017-10-09T20:17:47.567Z,14.30
2017-10-09T20:20:15.029Z,14.30
2017-10-09T20:22:42.514Z,14.30
2017-10-09T20:25:09.974Z,14.30
2017-10-09T20:27:37.458Z,14.40
2017-10-09T20:30:05.742Z,14.40
2017-10-09T20:32:33.218Z,14.30
2017-10-09T20:35:00.702Z,14.40
2017-10-09T20:37:28.159Z,14.40
2017-10-09T20:39:55.653Z,14.40
2017-10-09T20:42:23.113Z,14.40
2017-10-09T20:44:50.578Z,14.40
2017-10-09T20:47:18.080Z,14.40
2017-10-09T20:49:45.533Z,14.40
2017-10-09T20:52:13.018Z,14.40
2017-10-09T20:54:40.473Z,14.40
2017-10-09T20:57:07.941Z,14.40
2017-10-09T20:59:35.438Z,14.40
2017-10-09T21:02:02.907Z,14.40
2017-10-09T21:04:30.401Z,14.40
2017-10-09T21:06:57.874Z,14.40
2017-10-09T21:09:25.362Z,14.40
2017-10-09T21:11:53.601Z,14.40
2017-10-09T21:14:21.070Z,14.40
2017-10-09T21:16:48.544Z,14.40
2017-10-09T21:19:17.701Z,14.40
2017-10-09T21:21:45.181Z,14.40
2017-10-09T21:24:12.657Z,14.40
2017-10-09T21:26:40.889Z,14.40
2017-10-09T21:29:08.418Z,14.30
2017-10-09T21:31:35.873Z,14.40
2017-10-09T21:34:03.357Z,14.30
2017-10-09T21:36:30.816Z,14.30
2017-10-09T21:38:58.321Z,14.30
2017-10-09T21:41:25.781Z,14.30
2017-10-09T21:43:53.237Z,14.20
2017-10-09T21:46:20.721Z,14.20
2017-10-09T21:48:48.178Z,14.10
2017-10-09T21:51:15.665Z,14.10
2017-10-09T21:53:43.141Z,14.00
2017-10-09T21:56:10.701Z,14.00
2017-10-09T21:58:38.174Z,13.90
2017-10-09T22:01:05.634Z,13.90
2017-10-09T22:03:33.101Z,13.90
2017-10-09T22:06:00.613Z,13.90
2017-10-09T22:08:28.085Z,13.90
2017-10-09T22:10:55.573Z,13.90
2017-10-09T22:13:23.025Z,13.90
2017-10-09T22:15:50.641Z,13.90
2017-10-09T22:18:18.641Z,13.90
2017-10-09T22:20:46.150Z,14.00
2017-10-09T22:23:13.614Z,14.00
2017-10-09T22:25:41.113Z,14.00
2017-10-09T22:28:08.565Z,14.10
2017-10-09T22:30:36.058Z,14.10
2017-10-09T22:33:03.535Z,14.00
2017-10-09T22:35:31.797Z,14.10
2017-10-09T22:37:59.269Z,14.00
2017-10-09T22:40:27.497Z,14.10
2017-10-09T22:42:55.749Z,14.10
2017-10-09T22:45:23.217Z,14.10
2017-10-09T22:47:50.688Z,14.10
2017-10-09T22:50:18.211Z,14.10
2017-10-09T22:52:45.691Z,14.10
2017-10-09T22:55:13.165Z,14.10
2017-10-09T22:57:40.646Z,14.10
2017-10-09T23:00:08.106Z,14.10
2017-10-09T23:02:35.589Z,14.10
2017-10-09T23:05:03.075Z,14.10
2017-10-09T23:07:30.541Z,14.10
2017-10-09T23:09:58.054Z,14.10
2017-10-09T23:12:26.293Z,14.10
2017-10-09T23:14:53.774Z,14.10
2017-10-09T23:17:21.257Z,14.10
2017-10-09T23:19:50.425Z,14.10
2017-10-09T23:22:17.880Z,14.10
2017-10-09T23:24:45.368Z,14.10
2017-10-09T23:27:13.614Z,14.10
2017-10-09T23:29:41.073Z,14.10
2017-10-09T23:32:08.561Z,14.10
2017-10-09T23:34:36.022Z,14.10
2017-10-09T23:37:03.496Z,14.10
2017-10-09T23:39:30.978Z,14.10
2017-10-09T23:41:58.473Z,14.10
2017-10-09T23:44:25.954Z,14.10
2017-10-09T23:46:54.177Z,14.10
2017-10-09T23:49:21.706Z,14.10
2017-10-09T23:51:49.178Z,14.10
2017-10-09T23:54:16.650Z,14.20
2017-10-09T23:56:44.105Z,14.20
2017-10-09T23:59:11.592Z,14.20
